Surface Data

83.7 °F / 28.7 °C
ENE at 13 MPH
75%
75.0°F / 23.9 °C
29.82" (1009 mb)
10 mile(s)
partly cloudy
2024.02.24 0240 UTC

Surface Data

Raw METARs

2024/02/24 02:40
PKWA 240240Z AUTO 07011KT 10SM SCT045 SCT055 29/24 A2982 RMK AO2 T02870239 TSNO

Translated METAR

Kwajalein, Bucholz AAF, Kwajalein KMR ATOL Airport, Marshall Islands (PKWA) 08-43N 167-44E 2M
Feb 23, 2024 - 09:40 PM EST / 2024.02.24 0240 UTC
Wind: from the ENE (070 degrees) at 13 MPH (11 KT):0
Visibility: 10 mile(s):0
Sky conditions: partly cloudy
Temperature: 83.7 F (28.7 C)
Dew Point: 75.0 F (23.9 C)
Relative Humidity: 75%
Pressure (altimeter): 29.82 in. Hg (1009 hPa)
ob: PKWA 240240Z AUTO 07011KT 10SM SCT045 SCT055 29/24 A2982 RMK AO2 T02870239 TSNO
cycle: 2